createdAt,value
2023-04-14T00:01:19.614Z,97325.81
2023-04-14T00:03:47.388Z,97327.84
2023-04-14T00:06:15.073Z,97326.16
2023-04-14T00:08:42.716Z,97339.28
2023-04-14T00:11:10.745Z,97332.47
2023-04-14T00:13:40.090Z,97330.91
2023-04-14T00:16:08.198Z,97330.22
2023-04-14T00:18:37.462Z,97332.28
2023-04-14T00:21:05.347Z,97329.44
2023-04-14T00:23:33.062Z,97324.00
2023-04-14T00:26:00.782Z,97320.97
2023-04-14T00:28:28.479Z,97320.28
2023-04-14T00:30:57.525Z,97323.13
2023-04-14T00:33:25.379Z,97327.97
2023-04-14T00:35:53.162Z,97326.63
2023-04-14T00:38:21.096Z,97336.53
2023-04-14T00:40:48.798Z,97337.66
2023-04-14T00:43:20.050Z,97337.91
2023-04-14T00:45:50.232Z,97329.78
2023-04-14T00:48:20.085Z,97339.50
2023-04-14T00:50:48.584Z,97345.78
2023-04-14T00:53:16.603Z,97350.97
2023-04-14T00:55:44.796Z,97352.53
2023-04-14T00:58:13.032Z,97353.91
2023-04-14T01:00:40.835Z,97355.03
2023-04-14T01:03:08.786Z,97361.13
2023-04-14T01:05:37.967Z,97362.13
2023-04-14T01:08:06.078Z,97361.00
2023-04-14T01:10:41.674Z,97358.63
2023-04-14T01:13:21.872Z,97367.88
2023-04-14T01:15:57.550Z,97383.88
2023-04-14T01:18:36.985Z,97377.81
2023-04-14T01:21:11.542Z,97379.63
2023-04-14T01:23:51.177Z,97388.81
2023-04-14T01:26:23.021Z,97384.66
2023-04-14T01:29:22.901Z,97383.72
2023-04-14T01:31:56.279Z,97382.13
2023-04-14T01:34:31.016Z,97369.97
2023-04-14T01:37:03.328Z,97376.72
2023-04-14T01:39:35.967Z,97371.31
2023-04-14T01:42:07.507Z,97375.25
2023-04-14T01:44:36.780Z,97368.38
2023-04-14T01:47:09.378Z,97369.06
2023-04-14T01:49:40.521Z,97365.88
2023-04-14T01:52:10.977Z,97361.13
2023-04-14T01:54:40.634Z,97347.78
2023-04-14T01:57:10.080Z,97355.34
2023-04-14T01:59:38.940Z,97358.38
2023-04-14T02:02:11.003Z,97357.84
2023-04-14T02:04:41.522Z,97363.94
2023-04-14T02:07:12.532Z,97362.69
2023-04-14T02:09:42.255Z,97361.81
2023-04-14T02:12:12.994Z,97363.59
2023-04-14T02:14:42.719Z,97357.06
2023-04-14T02:17:12.725Z,97343.72
2023-04-14T02:19:42.301Z,97342.59
2023-04-14T02:22:10.044Z,97342.59
2023-04-14T02:24:37.798Z,97336.50
2023-04-14T02:27:10.083Z,97339.53
2023-04-14T02:29:41.376Z,97339.66
2023-04-14T02:32:18.329Z,97334.91
2023-04-14T02:34:51.817Z,97348.00
2023-04-14T02:37:25.548Z,97341.91
2023-04-14T02:39:59.740Z,97351.38
2023-04-14T02:42:29.552Z,97366.03
2023-04-14T02:45:03.468Z,97372.38
2023-04-14T02:47:36.041Z,97370.94
2023-04-14T02:50:11.485Z,97368.28
2023-04-14T02:52:41.129Z,97366.03
2023-04-14T02:55:11.547Z,97363.56
2023-04-14T02:57:40.233Z,97377.31
2023-04-14T03:00:09.505Z,97381.03
2023-04-14T03:02:39.901Z,97377.75
2023-04-14T03:05:09.318Z,97370.31
2023-04-14T03:07:38.196Z,97378.44
2023-04-14T03:10:06.972Z,97367.16
2023-04-14T03:12:36.650Z,97362.06
2023-04-14T03:15:05.591Z,97356.31
2023-04-14T03:17:34.284Z,97350.25
2023-04-14T03:20:03.737Z,97340.06
2023-04-14T03:22:34.267Z,97337.03
2023-04-14T03:25:01.945Z,97342.31
2023-04-14T03:27:31.670Z,97346.28
2023-04-14T03:30:04.329Z,97338.94
2023-04-14T03:32:35.778Z,97339.84
2023-04-14T03:35:05.379Z,97335.09
2023-04-14T03:37:37.857Z,97334.75
2023-04-14T03:40:09.586Z,97342.97
2023-04-14T03:42:39.899Z,97339.38
2023-04-14T03:45:08.841Z,97341.66
2023-04-14T03:47:37.607Z,97343.69
2023-04-14T03:50:10.229Z,97344.03
2023-04-14T03:52:40.336Z,97346.16
2023-04-14T03:55:12.433Z,97345.00
2023-04-14T03:57:43.830Z,97349.28
2023-04-14T04:00:15.818Z,97347.50
2023-04-14T04:02:44.775Z,97346.59
2023-04-14T04:05:14.664Z,97355.84
2023-04-14T04:07:44.979Z,97342.75
2023-04-14T04:10:14.195Z,97345.47
2023-04-14T04:12:43.957Z,97345.22
2023-04-14T04:15:12.291Z,97337.75
2023-04-14T04:17:41.647Z,97334.59
2023-04-14T04:20:13.674Z,97332.59
2023-04-14T04:22:45.410Z,97329.41
2023-04-14T04:25:14.710Z,97327.72
2023-04-14T04:27:42.856Z,97337.75
2023-04-14T04:30:14.474Z,97337.75
2023-04-14T04:32:42.484Z,97333.03
2023-04-14T04:35:12.275Z,97328.72
2023-04-14T04:37:43.657Z,97329.19
2023-04-14T04:40:12.672Z,97319.88
2023-04-14T04:42:44.056Z,97315.59
2023-04-14T04:45:12.534Z,97317.44
2023-04-14T04:47:40.422Z,97321.94
2023-04-14T04:50:09.044Z,97324.84
2023-04-14T04:52:36.949Z,97327.88
2023-04-14T04:55:07.650Z,97337.91
2023-04-14T04:57:35.566Z,97334.78
2023-04-14T05:00:04.481Z,97333.19
2023-04-14T05:02:32.508Z,97346.28
2023-04-14T05:05:00.314Z,97349.25
2023-04-14T05:07:28.199Z,97349.25
2023-04-14T05:09:56.001Z,97355.56
2023-04-14T05:12:25.161Z,97354.34
2023-04-14T05:14:52.833Z,97355.38
2023-04-14T05:17:20.535Z,97362.56
2023-04-14T05:19:48.184Z,97360.31
2023-04-14T05:22:15.977Z,97368.16
2023-04-14T05:24:49.922Z,97363.75
2023-04-14T05:27:17.674Z,97367.47
2023-04-14T05:29:46.687Z,97373.41
2023-04-14T05:32:14.697Z,97365.75
2023-04-14T05:34:42.576Z,97371.41
2023-04-14T05:37:10.876Z,97374.31
2023-04-14T05:39:38.655Z,97373.47
2023-04-14T05:42:06.627Z,97384.97
2023-04-14T05:44:34.260Z,97370.53
2023-04-14T05:47:03.798Z,97363.19
2023-04-14T05:49:31.610Z,97376.06
2023-04-14T05:51:59.401Z,97370.34
2023-04-14T05:54:27.128Z,97363.81
2023-04-14T05:56:54.777Z,97365.25
2023-04-14T05:59:22.409Z,97362.47
2023-04-14T06:01:50.204Z,97360.22
2023-04-14T06:04:19.531Z,97364.72
2023-04-14T06:06:47.452Z,97369.69
2023-04-14T06:09:15.109Z,97373.72
2023-04-14T06:11:42.786Z,97379.63
2023-04-14T06:14:10.480Z,97378.97
2023-04-14T06:16:38.300Z,97375.81
2023-04-14T06:19:06.013Z,97373.75
2023-04-14T06:21:35.037Z,97374.88
2023-04-14T06:24:02.688Z,97379.63
2023-04-14T06:26:31.237Z,97373.31
2023-04-14T06:29:00.722Z,97375.00
2023-04-14T06:31:28.869Z,97369.97
2023-04-14T06:33:56.572Z,97373.13
2023-04-14T06:36:24.299Z,97363.22
2023-04-14T06:38:53.246Z,97364.56
2023-04-14T06:41:20.953Z,97353.50
2023-04-14T06:43:48.544Z,97355.88
2023-04-14T06:46:17.277Z,97363.09
2023-04-14T06:48:45.255Z,97363.66
2023-04-14T06:51:13.676Z,97364.13
2023-04-14T06:53:41.671Z,97363.44
2023-04-14T06:56:11.041Z,97359.72
2023-04-14T06:58:40.115Z,97356.41
2023-04-14T07:01:07.896Z,97358.47
2023-04-14T07:03:35.582Z,97357.00
2023-04-14T07:06:04.559Z,97350.53
2023-04-14T07:08:34.749Z,97358.34
2023-04-14T07:11:03.894Z,97353.50
2023-04-14T07:13:33.729Z,97360.03
2023-04-14T07:16:02.146Z,97362.63
2023-04-14T07:18:30.211Z,97356.63
2023-04-14T07:20:58.546Z,97360.91
2023-04-14T07:23:26.190Z,97362.56
2023-04-14T07:25:55.207Z,97362.78
2023-04-14T07:28:24.470Z,97362.81
2023-04-14T07:30:53.708Z,97360.63
2023-04-14T07:33:22.369Z,97353.84
2023-04-14T07:36:01.245Z,97360.16
2023-04-14T07:38:30.933Z,97356.84
2023-04-14T07:40:58.590Z,97360.31
2023-04-14T07:43:26.348Z,97362.47
2023-04-14T07:45:55.368Z,97365.91
2023-04-14T07:48:23.059Z,97365.88
2023-04-14T07:50:50.723Z,97350.25
2023-04-14T07:53:18.394Z,97355.78
2023-04-14T07:55:46.017Z,97364.59
2023-04-14T07:58:15.790Z,97355.19
2023-04-14T08:00:43.760Z,97361.84
2023-04-14T08:03:13.738Z,97365.84
2023-04-14T08:05:42.595Z,97362.44
2023-04-14T08:08:10.611Z,97353.25
2023-04-14T08:10:39.762Z,97354.34
2023-04-14T08:13:07.385Z,97364.88
2023-04-14T08:15:35.148Z,97359.88
2023-04-14T08:18:02.951Z,97352.25
2023-04-14T08:20:32.058Z,97353.50
2023-04-14T08:22:59.832Z,97359.81
2023-04-14T08:25:27.572Z,97357.09
2023-04-14T08:27:55.277Z,97364.56
2023-04-14T08:30:24.169Z,97359.91
2023-04-14T08:32:51.998Z,97359.13
2023-04-14T08:35:39.344Z,97362.38
2023-04-14T08:38:08.768Z,97351.72
2023-04-14T08:40:39.773Z,97354.53
2023-04-14T08:43:08.113Z,97345.75
2023-04-14T08:45:36.796Z,97337.56
2023-04-14T08:48:05.736Z,97342.03
2023-04-14T08:50:37.188Z,97365.38
2023-04-14T08:53:10.324Z,97369.22
2023-04-14T08:55:41.295Z,97359.44
2023-04-14T08:58:10.455Z,97356.97
2023-04-14T09:00:38.863Z,97360.63
2023-04-14T09:03:06.977Z,97365.50
2023-04-14T09:05:34.849Z,97375.56
2023-04-14T09:08:03.717Z,97373.47
2023-04-14T09:10:32.970Z,97368.75
2023-04-14T09:13:01.394Z,97372.91
2023-04-14T09:15:29.414Z,97366.75
2023-04-14T09:17:57.288Z,97370.63
2023-04-14T09:20:38.477Z,97372.63
2023-04-14T09:23:09.310Z,97367.19
2023-04-14T09:25:39.606Z,97363.66
2023-04-14T09:28:07.425Z,97371.47
2023-04-14T09:30:35.189Z,97377.81
2023-04-14T09:33:05.969Z,97389.53
2023-04-14T09:35:45.626Z,97377.91
2023-04-14T09:38:13.360Z,97374.13
2023-04-14T09:40:44.040Z,97373.50
2023-04-14T09:43:24.318Z,97380.09
2023-04-14T09:45:52.105Z,97374.75
2023-04-14T09:48:21.207Z,97374.41
2023-04-14T09:51:01.978Z,97379.50
2023-04-14T09:53:30.640Z,97374.03
2023-04-14T09:56:02.733Z,97371.31
2023-04-14T09:58:31.525Z,97377.66
2023-04-14T10:00:59.784Z,97380.03
2023-04-14T10:03:36.025Z,97378.09
2023-04-14T10:06:07.340Z,97367.09
2023-04-14T10:08:37.061Z,97369.59
2023-04-14T10:11:20.173Z,97366.69
2023-04-14T10:13:49.583Z,97353.19
2023-04-14T10:16:18.050Z,97342.09
2023-04-14T10:18:46.536Z,97338.06
2023-04-14T10:21:15.059Z,97334.63
2023-04-14T10:23:44.464Z,97324.31
2023-04-14T10:26:13.665Z,97328.28
2023-04-14T10:28:45.112Z,97322.53
2023-04-14T10:31:16.135Z,97322.00
2023-04-14T10:33:44.048Z,97312.28
2023-04-14T10:36:12.140Z,97308.75
2023-04-14T10:38:42.170Z,97316.06
2023-04-14T10:41:10.684Z,97314.53
2023-04-14T10:43:39.587Z,97317.03
2023-04-14T10:46:11.031Z,97309.31
2023-04-14T10:48:41.291Z,97311.47
2023-04-14T10:51:10.874Z,97310.97
2023-04-14T10:53:44.845Z,97310.56
2023-04-14T10:56:12.525Z,97313.06
2023-04-14T10:58:40.476Z,97302.66
2023-04-14T11:01:29.916Z,97309.00
2023-04-14T11:03:58.397Z,97299.19
2023-04-14T11:06:52.307Z,97301.91
2023-04-14T11:09:25.329Z,97308.84
2023-04-14T11:11:53.113Z,97293.25
2023-04-14T11:14:27.515Z,97292.03
2023-04-14T11:17:04.322Z,97283.81
2023-04-14T11:19:34.055Z,97293.25
2023-04-14T11:22:01.797Z,97292.53
2023-04-14T11:24:29.894Z,97292.94
2023-04-14T11:26:58.402Z,97287.44
2023-04-14T11:29:26.162Z,97287.81
2023-04-14T11:32:06.654Z,97282.25
2023-04-14T11:34:35.043Z,97273.59
2023-04-14T11:37:03.978Z,97278.97
2023-04-14T11:39:32.152Z,97283.50
2023-04-14T11:42:01.165Z,97284.09
2023-04-14T11:44:28.905Z,97282.25
2023-04-14T11:46:56.624Z,97272.47
2023-04-14T11:49:35.942Z,97264.75
2023-04-14T11:52:10.179Z,97260.66
2023-04-14T11:54:39.365Z,97252.50
2023-04-14T11:57:11.247Z,97250.22
2023-04-14T11:59:43.599Z,97248.63
2023-04-14T12:02:18.096Z,97255.72
2023-04-14T12:04:50.242Z,97242.38
2023-04-14T12:07:19.922Z,97232.19
2023-04-14T12:09:49.351Z,97246.31
2023-04-14T12:12:18.597Z,97233.75
2023-04-14T12:14:47.714Z,97231.00
2023-04-14T12:17:16.176Z,97219.63
2023-04-14T12:19:44.347Z,97221.97
2023-04-14T12:22:13.369Z,97210.19
2023-04-14T12:24:43.025Z,97211.78
2023-04-14T12:27:11.035Z,97217.25
2023-04-14T12:29:38.823Z,97217.25
2023-04-14T12:32:11.890Z,97211.72
2023-04-14T12:34:39.876Z,97207.09
2023-04-14T12:37:09.641Z,97200.78
2023-04-14T12:39:51.781Z,97197.69
2023-04-14T12:42:19.839Z,97195.28
2023-04-14T12:44:58.859Z,97186.72
2023-04-14T12:47:31.295Z,97179.66
2023-04-14T12:50:00.803Z,97173.00
2023-04-14T12:52:38.942Z,97181.22
2023-04-14T12:55:19.809Z,97176.50
2023-04-14T12:57:47.562Z,97167.88
2023-04-14T13:00:15.886Z,97171.81
2023-04-14T13:02:44.848Z,97168.66
2023-04-14T13:05:14.013Z,97163.91
2023-04-14T13:07:41.723Z,97162.38
2023-04-14T13:10:12.108Z,97155.34
2023-04-14T13:12:39.828Z,97160.75
2023-04-14T13:15:08.631Z,97156.00
2023-04-14T13:17:56.436Z,97157.50
2023-04-14T13:20:24.138Z,97155.91
2023-04-14T13:22:52.320Z,97155.09
2023-04-14T13:25:21.949Z,97150.47
2023-04-14T13:27:49.638Z,97153.91
2023-04-14T13:30:17.268Z,97146.50
2023-04-14T13:32:44.969Z,97143.78
2023-04-14T13:35:12.667Z,97145.78
2023-04-14T13:37:40.300Z,97139.94
2023-04-14T13:40:09.829Z,97135.63
2023-04-14T13:42:38.782Z,97141.81
2023-04-14T13:45:07.924Z,97137.09
2023-04-14T13:47:35.580Z,97140.56
2023-04-14T13:50:03.432Z,97139.09
2023-04-14T13:52:31.065Z,97142.59
2023-04-14T13:54:58.728Z,97138.00
2023-04-14T13:57:26.481Z,97135.34
2023-04-14T13:59:55.599Z,97143.56
2023-04-14T14:02:23.792Z,97140.47
2023-04-14T14:04:51.735Z,97143.63
2023-04-14T14:07:19.356Z,97138.91
2023-04-14T14:09:47.013Z,97131.84
2023-04-14T14:12:14.814Z,97131.88
2023-04-14T14:14:42.477Z,97134.97
2023-04-14T14:17:11.588Z,97138.91
2023-04-14T14:19:40.013Z,97127.91
2023-04-14T14:22:08.354Z,97134.13
2023-04-14T14:24:36.005Z,97132.63
2023-04-14T14:27:04.178Z,97122.44
2023-04-14T14:29:31.895Z,97125.56
2023-04-14T14:31:59.539Z,97126.75
2023-04-14T14:34:28.569Z,97120.09
2023-04-14T14:36:56.427Z,97118.53
2023-04-14T14:39:24.556Z,97119.31
2023-04-14T14:41:52.653Z,97120.09
2023-04-14T14:44:20.332Z,97116.91
2023-04-14T14:46:48.271Z,97120.00
2023-04-14T14:49:16.049Z,97130.94
2023-04-14T14:51:44.991Z,97116.84
2023-04-14T14:54:12.747Z,97125.97
2023-04-14T14:56:40.736Z,97119.53
2023-04-14T14:59:09.587Z,97119.53
2023-04-14T15:01:37.524Z,97129.16
2023-04-14T15:04:06.413Z,97128.59
2023-04-14T15:06:35.359Z,97127.69
2023-04-14T15:09:05.404Z,97129.31
2023-04-14T15:11:33.171Z,97130.06
2023-04-14T15:14:01.297Z,97129.25
2023-04-14T15:16:29.230Z,97138.03
2023-04-14T15:18:57.580Z,97128.09
2023-04-14T15:21:25.200Z,97136.28
2023-04-14T15:23:52.906Z,97137.09
2023-04-14T15:26:22.079Z,97145.66
2023-04-14T15:28:49.778Z,97142.50
2023-04-14T15:31:17.456Z,97150.22
2023-04-14T15:33:45.559Z,97150.22
2023-04-14T15:36:13.192Z,97157.31
2023-04-14T15:38:40.933Z,97154.22
2023-04-14T15:41:08.577Z,97147.69
2023-04-14T15:43:37.557Z,97147.28
2023-04-14T15:46:05.645Z,97144.25
2023-04-14T15:48:33.291Z,97148.97
2023-04-14T15:51:01.006Z,97152.78
2023-04-14T15:53:28.709Z,97159.03
2023-04-14T15:55:56.312Z,97158.69
2023-04-14T15:58:24.184Z,97160.66
2023-04-14T16:00:53.185Z,97159.91
2023-04-14T16:03:20.963Z,97157.56
2023-04-14T16:05:48.685Z,97158.00
2023-04-14T16:08:16.916Z,97156.44
2023-04-14T16:10:44.639Z,97156.00
2023-04-14T16:13:12.319Z,97156.06
2023-04-14T16:15:40.768Z,97154.56
2023-04-14T16:18:09.787Z,97159.22
2023-04-14T16:20:37.472Z,97160.78
2023-04-14T16:23:05.183Z,97156.75
2023-04-14T16:25:32.911Z,97153.69
2023-04-14T16:28:00.741Z,97162.66
2023-04-14T16:30:28.406Z,97159.91
2023-04-14T16:32:56.956Z,97164.97
2023-04-14T16:35:26.737Z,97152.81
2023-04-14T16:37:54.416Z,97157.47
2023-04-14T16:40:22.317Z,97156.56
2023-04-14T16:42:49.921Z,97157.47
2023-04-14T16:45:18.631Z,97151.91
2023-04-14T16:47:46.992Z,97150.75
2023-04-14T16:50:14.637Z,97156.16
2023-04-14T16:52:43.942Z,97157.75
2023-04-14T16:55:12.608Z,97150.69
2023-04-14T16:57:40.731Z,97153.66
2023-04-14T17:00:12.131Z,97151.78
2023-04-14T17:02:40.978Z,97153.72
2023-04-14T17:05:13.010Z,97145.91
2023-04-14T17:07:41.097Z,97152.91
2023-04-14T17:10:11.436Z,97149.03
2023-04-14T17:12:39.081Z,97149.72
2023-04-14T17:15:07.478Z,97152.13
2023-04-14T17:17:36.811Z,97148.16
2023-04-14T17:20:06.180Z,97148.59
2023-04-14T17:22:34.174Z,97156.25
2023-04-14T17:25:01.846Z,97149.56
2023-04-14T17:27:30.813Z,97149.56
2023-04-14T17:29:58.841Z,97160.38
2023-04-14T17:32:27.748Z,97161.13
2023-04-14T17:34:55.602Z,97166.19
2023-04-14T17:37:23.473Z,97171.66
2023-04-14T17:39:51.521Z,97167.00
2023-04-14T17:42:19.222Z,97173.84
2023-04-14T17:44:48.276Z,97169.19
2023-04-14T17:47:16.806Z,97167.97
2023-04-14T17:49:44.897Z,97175.25
2023-04-14T17:52:12.578Z,97175.47
2023-04-14T17:54:40.559Z,97176.91
2023-04-14T17:57:10.801Z,97180.06
2023-04-14T17:59:38.736Z,97183.94
2023-04-14T18:02:08.511Z,97177.63
2023-04-14T18:04:36.324Z,97175.94
2023-04-14T18:07:04.578Z,97185.41
2023-04-14T18:09:32.165Z,97185.41
2023-04-14T18:11:59.965Z,97184.97
2023-04-14T18:14:27.605Z,97186.41
2023-04-14T18:16:55.393Z,97191.22
2023-04-14T18:19:24.505Z,97187.41
2023-04-14T18:21:56.061Z,97189.66
2023-04-14T18:26:57.113Z,97197.44
2023-04-14T18:29:24.875Z,97198.59
2023-04-14T18:31:52.567Z,97199.75
2023-04-14T18:34:20.874Z,97205.13
2023-04-14T18:36:49.917Z,97191.13
2023-04-14T18:39:18.883Z,97198.03
2023-04-14T18:41:47.061Z,97200.81
2023-04-14T18:44:16.893Z,97206.41
2023-04-14T18:46:44.749Z,97200.09
2023-04-14T18:49:13.340Z,97205.69
2023-04-14T18:51:41.186Z,97209.66
2023-04-14T18:54:10.446Z,97202.69
2023-04-14T18:56:38.143Z,97205.41
2023-04-14T18:59:07.627Z,97208.03
2023-04-14T19:01:35.939Z,97204.09
2023-04-14T19:04:03.908Z,97210.94
2023-04-14T19:06:31.745Z,97210.47
2023-04-14T19:09:00.966Z,97210.91
2023-04-14T19:11:32.233Z,97214.88
2023-04-14T19:13:59.950Z,97215.16
2023-04-14T19:16:27.671Z,97218.84
2023-04-14T19:18:55.841Z,97221.22
2023-04-14T19:21:23.958Z,97218.44
2023-04-14T19:23:54.289Z,97225.38
2023-04-14T19:26:22.513Z,97218.34
2023-04-14T19:28:52.843Z,97222.25
2023-04-14T19:31:21.457Z,97229.25
2023-04-14T19:33:49.416Z,97228.53
2023-04-14T19:36:18.366Z,97231.69
2023-04-14T19:38:46.270Z,97227.81
2023-04-14T19:41:14.686Z,97229.41
2023-04-14T19:43:43.035Z,97229.31
2023-04-14T19:46:13.337Z,97226.97
2023-04-14T19:48:41.559Z,97226.84
2023-04-14T19:51:09.363Z,97229.06
2023-04-14T19:53:38.881Z,97229.84
2023-04-14T19:56:07.303Z,97216.94
2023-04-14T19:58:36.521Z,97222.69
2023-04-14T20:01:06.187Z,97220.28
2023-04-14T20:03:35.443Z,97218.69
2023-04-14T20:06:03.443Z,97216.25
2023-04-14T20:08:32.275Z,97219.34
2023-04-14T20:11:00.417Z,97224.00
2023-04-14T20:13:31.237Z,97227.84
2023-04-14T20:15:59.217Z,97220.00
2023-04-14T20:18:28.033Z,97212.25
2023-04-14T20:20:57.273Z,97220.72
2023-04-14T20:23:25.072Z,97219.13
2023-04-14T20:25:54.083Z,97213.53
2023-04-14T20:28:25.722Z,97224.72
2023-04-14T20:30:55.868Z,97220.00
2023-04-14T20:33:24.599Z,97204.75
2023-04-14T20:35:54.317Z,97208.69
2023-04-14T20:38:23.792Z,97211.53
2023-04-14T20:40:51.694Z,97215.00
2023-04-14T20:43:19.457Z,97210.25
2023-04-14T20:45:49.701Z,97210.09
2023-04-14T20:48:18.509Z,97202.38
2023-04-14T20:50:49.482Z,97209.97
2023-04-14T20:53:17.940Z,97206.28
2023-04-14T20:55:47.880Z,97203.84
2023-04-14T20:58:15.768Z,97200.19
2023-04-14T21:00:43.825Z,97207.81
2023-04-14T21:03:12.738Z,97205.44
2023-04-14T21:05:41.378Z,97203.88
2023-04-14T21:08:09.712Z,97200.56
2023-04-14T21:11:14.801Z,97201.28
2023-04-14T21:15:31.269Z,97209.69
2023-04-14T21:16:16.141Z,97204.97
2023-04-14T21:18:44.456Z,97203.38
2023-04-14T21:21:13.133Z,97210.25
2023-04-14T21:23:41.347Z,97205.53
2023-04-14T21:26:09.618Z,97206.06
2023-04-14T21:28:38.904Z,97206.34
2023-04-14T21:31:07.635Z,97209.66
2023-04-14T21:33:35.423Z,97208.44
2023-04-14T21:36:03.205Z,97217.31
2023-04-14T21:38:31.131Z,97215.00
2023-04-14T21:40:59.054Z,97212.72
2023-04-14T21:43:26.800Z,97208.88
2023-04-14T21:45:56.340Z,97202.59
2023-04-14T21:48:24.760Z,97208.88
2023-04-14T21:50:52.616Z,97204.13
2023-04-14T21:53:20.808Z,97202.59
2023-04-14T21:56:08.757Z,97202.59
2023-04-14T21:58:38.913Z,97204.84
2023-04-14T22:01:09.646Z,97208.72
2023-04-14T22:03:40.220Z,97197.84
2023-04-14T22:21:45.173Z,97188.38
2023-04-14T22:24:13.547Z,97192.66
2023-04-14T22:26:42.035Z,97189.06
2023-04-14T22:29:11.512Z,97184.44
2023-04-14T22:31:39.404Z,97180.47
2023-04-14T22:34:07.545Z,97186.63
2023-04-14T22:36:35.279Z,97192.78
2023-04-14T22:39:04.801Z,97188.19
2023-04-14T22:41:32.445Z,97181.56
2023-04-14T22:44:00.360Z,97187.59
2023-04-14T22:46:28.458Z,97191.00
2023-04-14T22:48:56.866Z,97191.25
2023-04-14T22:51:24.510Z,97191.25
2023-04-14T22:53:52.172Z,97188.91
2023-04-14T22:56:21.755Z,97190.56
2023-04-14T22:58:49.350Z,97198.72
2023-04-14T23:01:22.360Z,97191.78
2023-04-14T23:03:52.442Z,97191.69
2023-04-14T23:06:20.531Z,97187.75
2023-04-14T23:08:48.300Z,97191.69
2023-04-14T23:11:17.926Z,97179.97
2023-04-14T23:13:51.360Z,97187.03
2023-04-14T23:16:20.531Z,97183.44
2023-04-14T23:18:51.777Z,97186.59
2023-04-14T23:21:20.446Z,97188.88
2023-04-14T23:23:48.095Z,97189.59
2023-04-14T23:26:16.073Z,97181.00
2023-04-14T23:28:43.816Z,97186.09
2023-04-14T23:31:12.957Z,97186.44
2023-04-14T23:33:40.851Z,97180.56
2023-04-14T23:36:08.993Z,97179.34
2023-04-14T23:38:36.708Z,97181.94
2023-04-14T23:41:04.894Z,97172.91
2023-04-14T23:43:32.742Z,97176.34
2023-04-14T23:46:00.716Z,97169.06
2023-04-14T23:48:29.761Z,97168.22
2023-04-14T23:51:01.186Z,97160.75
2023-04-14T23:53:45.009Z,97157.84
2023-04-14T23:56:12.647Z,97160.56
2023-04-14T23:58:40.322Z,97159.41
